createdAt,value
2018-08-18T00:00:54.604Z,15.94
2018-08-18T00:03:24.152Z,16.06
2018-08-18T00:05:53.846Z,16.06
2018-08-18T00:08:23.343Z,15.88
2018-08-18T00:10:53.197Z,15.98
2018-08-18T00:13:22.909Z,15.91
2018-08-18T00:15:52.373Z,15.94
2018-08-18T00:18:22.212Z,15.89
2018-08-18T00:20:51.669Z,15.91
2018-08-18T00:23:21.608Z,15.79
2018-08-18T00:25:51.083Z,15.77
2018-08-18T00:28:22.290Z,15.70
2018-08-18T00:30:52.802Z,15.85
2018-08-18T00:33:22.184Z,15.75
2018-08-18T00:35:52.180Z,15.70
2018-08-18T00:38:23.087Z,15.70
2018-08-18T00:40:53.063Z,15.71
2018-08-18T00:43:23.434Z,15.70
2018-08-18T00:45:52.697Z,15.53
2018-08-18T00:48:22.698Z,15.62
2018-08-18T00:50:52.127Z,15.62
2018-08-18T00:53:21.337Z,15.59
2018-08-18T00:55:50.653Z,15.55
2018-08-18T00:58:26.842Z,15.60
2018-08-18T01:01:01.474Z,15.59
2018-08-18T01:03:31.518Z,15.65
2018-08-18T01:06:41.207Z,15.68
2018-08-18T01:09:12.515Z,15.52
2018-08-18T01:11:42.000Z,15.52
2018-08-18T01:14:16.865Z,15.48
2018-08-18T01:16:51.108Z,15.54
2018-08-18T01:19:21.829Z,15.49
2018-08-18T01:21:59.168Z,15.36
2018-08-18T01:24:29.657Z,15.39
2018-08-18T01:27:02.654Z,15.37
2018-08-18T01:29:32.084Z,15.33
2018-08-18T01:32:01.771Z,15.33
2018-08-18T01:34:31.122Z,15.23
2018-08-18T01:37:08.528Z,15.05
2018-08-18T01:39:37.707Z,14.95
2018-08-18T01:42:07.526Z,14.99
2018-08-18T01:44:36.880Z,14.96
2018-08-18T01:47:09.595Z,15.08
2018-08-18T01:49:39.274Z,15.09
2018-08-18T01:52:15.857Z,15.01
2018-08-18T01:54:45.974Z,15.02
2018-08-18T01:57:18.138Z,15.11
2018-08-18T01:59:48.167Z,15.16
2018-08-18T02:02:22.882Z,15.06
2018-08-18T02:04:52.716Z,15.08
2018-08-18T02:07:28.563Z,14.98
2018-08-18T02:09:58.186Z,15.06
2018-08-18T02:12:28.277Z,15.03
2018-08-18T02:14:59.390Z,14.97
2018-08-18T02:17:38.165Z,14.92
2018-08-18T02:20:09.745Z,14.87
2018-08-18T02:22:39.193Z,14.89
2018-08-18T02:25:08.686Z,14.85
2018-08-18T02:27:38.206Z,14.78
2018-08-18T02:30:17.971Z,14.64
2018-08-18T02:32:47.414Z,14.64
2018-08-18T02:35:17.130Z,14.66
2018-08-18T02:37:47.270Z,14.61
2018-08-18T02:40:18.010Z,14.68
2018-08-18T02:42:47.518Z,14.58
2018-08-18T02:45:17.470Z,14.50
2018-08-18T02:47:46.981Z,14.59
2018-08-18T02:50:16.442Z,14.39
2018-08-18T02:52:46.154Z,14.37
2018-08-18T02:55:15.504Z,14.16
2018-08-18T02:57:45.413Z,14.39
2018-08-18T03:00:26.971Z,14.14
2018-08-18T03:02:57.467Z,14.30
2018-08-18T03:05:27.001Z,14.37
2018-08-18T03:07:56.558Z,14.49
2018-08-18T03:10:27.050Z,14.46
2018-08-18T03:12:57.882Z,14.55
2018-08-18T03:16:07.545Z,14.51
2018-08-18T03:18:43.584Z,14.28
2018-08-18T03:21:13.899Z,14.27
2018-08-18T03:23:54.378Z,14.05
2018-08-18T03:26:29.500Z,14.15
2018-08-18T03:28:58.943Z,14.18
2018-08-18T03:31:28.178Z,14.18
2018-08-18T03:33:57.463Z,14.01
2018-08-18T03:36:29.892Z,14.00
2018-08-18T03:38:59.674Z,14.01
2018-08-18T03:41:29.824Z,13.92
2018-08-18T03:43:59.701Z,14.00
2018-08-18T03:46:29.110Z,14.22
2018-08-18T03:48:58.651Z,14.44
2018-08-18T03:51:33.515Z,14.29
2018-08-18T03:54:02.931Z,14.19
2018-08-18T03:56:32.442Z,14.28
2018-08-18T03:59:01.983Z,14.16
2018-08-18T04:01:44.024Z,14.16
2018-08-18T04:04:15.707Z,14.20
2018-08-18T04:06:46.450Z,14.16
2018-08-18T04:09:21.462Z,13.93
2018-08-18T04:11:51.190Z,14.33
2018-08-18T04:14:23.843Z,14.26
2018-08-18T04:16:53.243Z,14.23
2018-08-18T04:19:23.030Z,14.19
2018-08-18T04:21:53.229Z,14.20
2018-08-18T04:24:24.444Z,14.23
2018-08-18T04:26:53.718Z,14.22
2018-08-18T04:29:23.051Z,14.16
2018-08-18T04:31:52.542Z,14.13
2018-08-18T04:34:22.155Z,14.23
2018-08-18T04:36:51.370Z,14.23
2018-08-18T04:39:20.854Z,14.17
2018-08-18T04:41:50.145Z,14.23
2018-08-18T04:44:19.526Z,14.20
2018-08-18T04:46:48.972Z,14.24
2018-08-18T04:49:18.895Z,14.28
2018-08-18T04:51:48.907Z,14.42
2018-08-18T04:54:18.478Z,14.28
2018-08-18T04:56:48.064Z,14.26
2018-08-18T04:59:17.353Z,14.33
2018-08-18T05:01:46.829Z,14.29
2018-08-18T05:04:16.303Z,14.32
2018-08-18T05:06:45.866Z,14.33
2018-08-18T05:09:15.987Z,14.31
2018-08-18T05:11:45.472Z,14.34
2018-08-18T05:14:14.947Z,14.35
2018-08-18T05:16:44.634Z,14.36
2018-08-18T05:19:13.864Z,14.49
2018-08-18T05:21:43.268Z,14.66
2018-08-18T05:24:23.258Z,14.56
2018-08-18T05:26:54.013Z,14.57
2018-08-18T05:29:23.446Z,14.58
2018-08-18T05:31:52.666Z,14.66
2018-08-18T05:34:22.154Z,14.56
2018-08-18T05:36:51.568Z,14.77
2018-08-18T05:39:21.336Z,14.94
2018-08-18T05:41:50.766Z,14.98
2018-08-18T05:44:20.111Z,15.06
2018-08-18T05:46:49.590Z,15.23
2018-08-18T05:49:19.111Z,15.32
2018-08-18T05:51:50.128Z,15.33
2018-08-18T05:54:23.477Z,15.49
2018-08-18T05:56:52.950Z,15.51
2018-08-18T05:59:22.610Z,15.61
2018-08-18T06:01:51.991Z,15.63
2018-08-18T06:04:22.594Z,15.82
2018-08-18T06:06:52.805Z,15.86
2018-08-18T06:09:23.358Z,15.95
2018-08-18T06:11:52.819Z,15.90
2018-08-18T06:14:22.334Z,15.95
2018-08-18T06:16:51.812Z,16.07
2018-08-18T06:19:21.335Z,16.19
2018-08-18T06:21:50.829Z,16.29
2018-08-18T06:24:20.794Z,16.36
2018-08-18T06:26:50.448Z,16.50
2018-08-18T06:29:20.024Z,16.51
2018-08-18T06:31:58.956Z,16.62
2018-08-18T06:34:31.751Z,16.64
2018-08-18T06:37:01.694Z,16.75
2018-08-18T06:39:46.307Z,16.75
2018-08-18T06:42:26.872Z,16.74
2018-08-18T06:44:56.512Z,16.68
2018-08-18T06:47:25.820Z,16.94
2018-08-18T06:49:55.492Z,17.02
2018-08-18T06:52:24.837Z,17.26
2018-08-18T06:54:56.053Z,17.23
2018-08-18T06:57:36.304Z,17.29
2018-08-18T07:00:09.447Z,17.39
2018-08-18T07:02:39.078Z,17.59
2018-08-18T07:05:11.438Z,17.74
2018-08-18T07:07:41.288Z,17.61
2018-08-18T07:10:23.400Z,17.71
2018-08-18T07:13:01.236Z,17.79
2018-08-18T07:15:32.811Z,17.96
2018-08-18T07:18:02.298Z,17.85
2018-08-18T07:20:31.735Z,17.77
2018-08-18T07:23:01.081Z,18.15
2018-08-18T07:25:30.426Z,18.27
2018-08-18T07:28:05.051Z,18.06
2018-08-18T07:30:34.505Z,18.40
2018-08-18T07:33:04.049Z,18.59
2018-08-18T07:35:34.104Z,18.54
2018-08-18T07:38:03.478Z,18.78
2018-08-18T07:40:45.116Z,18.94
2018-08-18T07:43:34.231Z,18.91
2018-08-18T07:46:07.650Z,18.83
2018-08-18T07:48:37.087Z,19.35
2018-08-18T07:51:06.822Z,19.61
2018-08-18T07:53:36.189Z,19.61
2018-08-18T07:56:05.644Z,21.31
2018-08-18T07:58:38.035Z,22.59
2018-08-18T08:01:07.807Z,22.25
2018-08-18T08:03:37.082Z,21.90
2018-08-18T08:06:06.500Z,21.95
2018-08-18T08:08:41.368Z,23.15
2018-08-18T08:11:14.418Z,23.94
2018-08-18T08:13:44.245Z,24.35
2018-08-18T08:16:13.755Z,23.85
2018-08-18T08:18:43.458Z,23.31
2018-08-18T08:21:12.991Z,23.42
2018-08-18T08:23:42.459Z,25.11
2018-08-18T08:26:11.947Z,25.65
2018-08-18T08:28:41.449Z,26.07
2018-08-18T08:31:11.164Z,24.96
2018-08-18T08:33:40.674Z,25.56
2018-08-18T08:36:13.746Z,23.17
2018-08-18T08:38:54.082Z,23.27
2018-08-18T08:41:25.198Z,23.22
2018-08-18T08:43:54.686Z,23.16
2018-08-18T08:46:23.963Z,23.30
2018-08-18T08:48:55.958Z,23.19
2018-08-18T08:51:25.838Z,23.60
2018-08-18T08:53:57.210Z,26.39
2018-08-18T08:56:34.692Z,26.02
2018-08-18T08:59:04.523Z,26.64
2018-08-18T09:01:34.537Z,26.83
2018-08-18T09:04:04.842Z,26.41
2018-08-18T09:06:35.402Z,25.06
2018-08-18T09:09:07.587Z,25.68
2018-08-18T09:11:37.317Z,25.39
2018-08-18T09:14:08.407Z,25.47
2018-08-18T09:16:38.117Z,23.95
2018-08-18T09:19:07.599Z,23.62
2018-08-18T09:21:42.378Z,25.19
2018-08-18T09:24:12.375Z,26.53
2018-08-18T09:26:47.061Z,27.24
2018-08-18T09:29:16.459Z,28.03
2018-08-18T09:31:46.672Z,26.94
2018-08-18T09:34:16.310Z,26.13
2018-08-18T09:36:46.667Z,25.46
2018-08-18T09:39:33.053Z,25.34
2018-08-18T09:42:05.541Z,24.78
2018-08-18T09:44:37.340Z,24.43
2018-08-18T09:47:06.771Z,24.37
2018-08-18T09:49:36.066Z,27.04
2018-08-18T09:52:06.615Z,27.45
2018-08-18T09:54:36.452Z,28.08
2018-08-18T09:57:06.059Z,28.55
2018-08-18T09:59:35.356Z,26.97
2018-08-18T10:02:05.454Z,26.61
2018-08-18T10:04:35.148Z,27.01
2018-08-18T10:07:05.904Z,27.30
2018-08-18T10:09:35.426Z,27.23
2018-08-18T10:12:05.348Z,27.09
2018-08-18T10:14:34.803Z,27.81
2018-08-18T10:17:04.343Z,28.65
2018-08-18T10:19:34.499Z,27.56
2018-08-18T10:22:04.426Z,29.92
2018-08-18T10:24:33.857Z,30.91
2018-08-18T10:27:04.311Z,29.76
2018-08-18T10:29:33.688Z,27.10
2018-08-18T10:32:02.883Z,25.60
2018-08-18T10:34:33.986Z,29.12
2018-08-18T10:37:07.163Z,29.59
2018-08-18T10:39:38.066Z,30.16
2018-08-18T10:42:13.640Z,30.53
2018-08-18T10:44:49.579Z,26.76
2018-08-18T10:47:21.134Z,29.38
2018-08-18T10:50:01.499Z,30.63
2018-08-18T10:52:42.590Z,29.97
2018-08-18T10:55:13.431Z,30.37
2018-08-18T10:57:54.512Z,29.06
2018-08-18T11:00:26.334Z,29.86
2018-08-18T11:02:57.282Z,29.01
2018-08-18T11:05:27.843Z,27.83
2018-08-18T11:08:03.112Z,27.74
2018-08-18T11:10:35.188Z,26.72
2018-08-18T11:13:05.155Z,26.45
2018-08-18T11:15:34.606Z,27.27
2018-08-18T11:18:04.162Z,28.32
2018-08-18T11:20:35.114Z,27.68
2018-08-18T11:23:06.672Z,26.45
2018-08-18T11:25:40.032Z,26.04
2018-08-18T11:28:10.485Z,27.13
2018-08-18T11:30:40.096Z,27.50
2018-08-18T11:33:09.366Z,28.76
2018-08-18T11:35:39.256Z,29.17
2018-08-18T11:38:13.868Z,28.18
2018-08-18T11:40:43.611Z,29.25
2018-08-18T11:43:14.858Z,30.23
2018-08-18T11:45:45.042Z,28.93
2018-08-18T11:48:23.474Z,29.07
2018-08-18T11:50:54.267Z,28.75
2018-08-18T11:53:23.847Z,27.48
2018-08-18T11:55:53.338Z,28.52
2018-08-18T11:58:23.921Z,27.79
2018-08-18T12:00:55.109Z,28.50
2018-08-18T12:03:33.151Z,28.61
2018-08-18T12:06:05.030Z,27.44
2018-08-18T12:08:35.842Z,28.59
2018-08-18T12:11:07.669Z,27.88
2018-08-18T12:13:40.981Z,27.91
2018-08-18T12:16:18.630Z,28.23
2018-08-18T12:18:49.126Z,28.41
2018-08-18T12:21:18.899Z,28.45
2018-08-18T12:23:49.310Z,28.41
2018-08-18T12:26:22.071Z,28.82
2018-08-18T12:28:54.102Z,28.24
2018-08-18T12:31:26.147Z,27.47
2018-08-18T12:33:55.678Z,27.41
2018-08-18T12:36:25.595Z,27.21
2018-08-18T12:38:56.681Z,26.34
2018-08-18T12:41:26.391Z,26.52
2018-08-18T12:43:57.020Z,27.42
2018-08-18T12:46:35.123Z,27.51
2018-08-18T12:49:06.115Z,27.66
2018-08-18T12:51:35.490Z,26.49
2018-08-18T12:54:04.991Z,27.11
2018-08-18T12:56:34.465Z,27.59
2018-08-18T12:59:04.199Z,28.11
2018-08-18T13:01:41.291Z,28.00
2018-08-18T13:04:12.742Z,27.68
2018-08-18T13:06:45.560Z,27.19
2018-08-18T13:09:16.571Z,27.54
2018-08-18T13:11:47.523Z,27.72
2018-08-18T13:14:24.163Z,28.13
2018-08-18T13:16:54.234Z,28.10
2018-08-18T13:19:26.570Z,28.25
2018-08-18T13:21:56.095Z,26.64
2018-08-18T13:24:25.727Z,26.92
2018-08-18T13:26:55.413Z,27.50
2018-08-18T13:29:24.878Z,27.98
2018-08-18T13:31:54.207Z,28.05
2018-08-18T13:34:23.652Z,28.17
2018-08-18T13:36:53.170Z,27.99
2018-08-18T13:39:22.900Z,28.20
2018-08-18T13:41:52.498Z,27.99
2018-08-18T13:44:28.494Z,27.91
2018-08-18T13:46:58.359Z,28.31
2018-08-18T13:49:28.299Z,27.30
2018-08-18T13:51:57.879Z,27.85
2018-08-18T13:54:27.088Z,26.70
2018-08-18T13:56:56.635Z,27.28
2018-08-18T13:59:46.236Z,27.75
2018-08-18T14:02:15.650Z,27.74
2018-08-18T14:04:45.174Z,27.99
2018-08-18T14:07:15.059Z,28.18
2018-08-18T14:09:50.647Z,27.59
2018-08-18T14:12:20.481Z,27.98
2018-08-18T14:14:50.170Z,28.12
2018-08-18T14:17:21.682Z,27.80
2018-08-18T14:19:51.864Z,27.26
2018-08-18T14:22:22.677Z,27.43
2018-08-18T14:24:52.899Z,27.43
2018-08-18T14:27:24.049Z,27.67
2018-08-18T14:29:53.346Z,28.11
2018-08-18T14:32:29.587Z,28.03
2018-08-18T14:35:07.149Z,28.03
2018-08-18T14:37:40.209Z,27.93
2018-08-18T14:40:13.468Z,28.00
2018-08-18T14:42:42.974Z,27.83
2018-08-18T14:45:15.574Z,28.02
2018-08-18T14:47:45.930Z,27.83
2018-08-18T14:50:24.207Z,27.95
2018-08-18T14:52:54.024Z,27.91
2018-08-18T14:55:23.898Z,27.88
2018-08-18T14:57:58.640Z,27.74
2018-08-18T15:00:28.127Z,27.85
2018-08-18T15:02:57.631Z,27.80
2018-08-18T15:05:27.149Z,27.73
2018-08-18T15:07:57.578Z,27.93
2018-08-18T15:10:39.010Z,27.97
2018-08-18T15:13:09.436Z,27.18
2018-08-18T15:15:38.736Z,27.07
2018-08-18T15:18:13.663Z,27.26
2018-08-18T15:20:43.671Z,27.35
2018-08-18T15:23:14.023Z,27.19
2018-08-18T15:25:44.107Z,27.42
2018-08-18T15:28:15.072Z,27.32
2018-08-18T15:30:48.068Z,27.31
2018-08-18T15:33:20.542Z,27.58
2018-08-18T15:35:50.099Z,27.62
2018-08-18T15:38:23.792Z,27.46
2018-08-18T15:40:53.163Z,27.63
2018-08-18T15:43:23.115Z,27.49
2018-08-18T15:46:03.953Z,27.45
2018-08-18T15:48:33.806Z,27.12
2018-08-18T15:51:03.271Z,27.17
2018-08-18T15:53:45.889Z,27.27
2018-08-18T15:56:15.382Z,27.14
2018-08-18T15:58:46.682Z,27.34
2018-08-18T16:01:16.494Z,27.30
2018-08-18T16:03:46.147Z,27.06
2018-08-18T16:06:15.688Z,27.36
2018-08-18T16:08:45.191Z,27.37
2018-08-18T16:11:15.163Z,27.31
2018-08-18T16:13:45.076Z,27.18
2018-08-18T16:16:14.839Z,27.08
2018-08-18T16:18:44.678Z,26.95
2018-08-18T16:21:19.386Z,26.94
2018-08-18T16:23:48.594Z,27.00
2018-08-18T16:26:18.062Z,26.98
2018-08-18T16:28:47.566Z,27.05
2018-08-18T16:31:17.046Z,27.04
2018-08-18T16:33:46.676Z,26.97
2018-08-18T16:36:16.891Z,26.78
2018-08-18T16:38:46.806Z,26.47
2018-08-18T16:41:16.534Z,26.30
2018-08-18T16:43:46.021Z,26.16
2018-08-18T16:46:31.544Z,26.11
2018-08-18T16:49:01.032Z,25.94
2018-08-18T16:51:30.525Z,25.99
2018-08-18T16:54:16.267Z,26.06
2018-08-18T16:56:45.698Z,26.04
2018-08-18T16:59:15.458Z,25.81
2018-08-18T17:01:44.706Z,25.76
2018-08-18T17:04:18.387Z,25.67
2018-08-18T17:06:47.862Z,25.49
2018-08-18T17:09:28.227Z,25.62
2018-08-18T17:12:11.802Z,25.69
2018-08-18T17:14:41.570Z,25.75
2018-08-18T17:17:12.025Z,25.63
2018-08-18T17:19:41.947Z,25.64
2018-08-18T17:22:12.876Z,25.54
2018-08-18T17:24:42.408Z,25.33
2018-08-18T17:27:11.710Z,25.38
2018-08-18T17:29:42.899Z,25.39
2018-08-18T17:32:12.365Z,25.51
2018-08-18T17:34:41.886Z,25.36
2018-08-18T17:37:12.058Z,25.28
2018-08-18T17:39:41.495Z,25.07
2018-08-18T17:42:11.436Z,25.06
2018-08-18T17:44:40.975Z,25.08
2018-08-18T17:47:11.330Z,25.07
2018-08-18T17:49:51.561Z,25.04
2018-08-18T17:52:20.909Z,24.99
2018-08-18T17:55:06.379Z,24.81
2018-08-18T17:57:36.741Z,24.66
2018-08-18T18:00:15.230Z,24.68
2018-08-18T18:02:50.682Z,24.66
2018-08-18T18:05:21.756Z,24.52
2018-08-18T18:07:56.611Z,24.54
2018-08-18T18:10:28.924Z,24.47
2018-08-18T18:12:58.347Z,24.31
2018-08-18T18:15:36.875Z,24.20
2018-08-18T18:18:08.958Z,24.08
2018-08-18T18:20:38.290Z,24.07
2018-08-18T18:23:10.206Z,24.00
2018-08-18T18:25:39.598Z,23.99
2018-08-18T18:28:09.337Z,23.97
2018-08-18T18:30:38.770Z,23.92
2018-08-18T18:33:09.378Z,23.87
2018-08-18T18:35:38.816Z,23.86
2018-08-18T18:38:08.646Z,23.76
2018-08-18T18:40:41.322Z,23.63
2018-08-18T18:43:10.776Z,23.53
2018-08-18T18:45:40.115Z,23.53
2018-08-18T18:48:12.502Z,23.37
2018-08-18T18:50:44.430Z,23.35
2018-08-18T18:53:14.787Z,23.32
2018-08-18T18:55:49.759Z,23.28
2018-08-18T18:58:19.095Z,23.37
2018-08-18T19:00:54.895Z,23.25
2018-08-18T19:03:25.242Z,23.17
2018-08-18T19:05:54.799Z,23.13
2018-08-18T19:08:24.286Z,22.99
2018-08-18T19:10:53.795Z,22.93
2018-08-18T19:13:23.369Z,22.90
2018-08-18T19:15:52.646Z,22.89
2018-08-18T19:18:22.071Z,22.78
2018-08-18T19:20:51.630Z,22.64
2018-08-18T19:23:21.642Z,22.64
2018-08-18T19:25:51.872Z,22.59
2018-08-18T19:28:23.451Z,22.59
2018-08-18T19:30:52.884Z,22.43
2018-08-18T19:33:22.115Z,22.31
2018-08-18T19:35:53.390Z,22.19
2018-08-18T19:38:23.766Z,21.88
2018-08-18T19:40:54.584Z,21.88
2018-08-18T19:43:26.434Z,21.92
2018-08-18T19:45:56.800Z,21.90
2018-08-18T19:48:27.883Z,21.80
2018-08-18T19:51:04.379Z,21.59
2018-08-18T19:53:35.495Z,21.53
2018-08-18T19:56:08.358Z,21.45
2018-08-18T19:58:37.766Z,21.32
2018-08-18T20:01:07.522Z,21.41
2018-08-18T20:03:37.061Z,21.63
2018-08-18T20:06:13.514Z,21.40
2018-08-18T20:08:42.914Z,21.36
2018-08-18T20:11:12.684Z,21.39
2018-08-18T20:13:42.118Z,21.33
2018-08-18T20:16:11.607Z,21.26
2018-08-18T20:18:41.027Z,21.08
2018-08-18T20:21:10.462Z,20.98
2018-08-18T20:23:40.153Z,20.87
2018-08-18T20:26:09.649Z,20.81
2018-08-18T20:28:39.289Z,20.56
2018-08-18T20:31:09.058Z,20.64
2018-08-18T20:33:38.513Z,20.68
2018-08-18T20:36:07.874Z,20.73
2018-08-18T20:38:45.203Z,20.58
2018-08-18T20:41:14.806Z,20.65
2018-08-18T20:43:47.487Z,20.59
2018-08-18T20:46:16.803Z,20.52
2018-08-18T20:48:46.171Z,20.36
2018-08-18T20:51:18.871Z,20.36
2018-08-18T20:53:48.349Z,20.39
2018-08-18T20:56:17.830Z,20.30
2018-08-18T20:58:47.339Z,20.17
2018-08-18T21:01:16.839Z,20.15
2018-08-18T21:03:50.196Z,20.10
2018-08-18T21:06:20.394Z,20.15
2018-08-18T21:08:50.323Z,20.12
2018-08-18T21:11:19.777Z,20.20
2018-08-18T21:13:50.571Z,19.99
2018-08-18T21:16:20.876Z,19.98
2018-08-18T21:18:50.346Z,19.94
2018-08-18T21:21:34.657Z,19.76
2018-08-18T21:24:04.457Z,19.73
2018-08-18T21:26:33.812Z,19.58
2018-08-18T21:29:03.350Z,19.72
2018-08-18T21:31:35.958Z,19.61
2018-08-18T21:34:07.002Z,19.78
2018-08-18T21:36:36.975Z,19.59
2018-08-18T21:39:08.943Z,19.63
2018-08-18T21:41:40.304Z,19.60
2018-08-18T21:44:11.708Z,19.52
2018-08-18T21:46:41.663Z,19.47
2018-08-18T21:49:11.894Z,19.55
2018-08-18T21:51:41.405Z,19.58
2018-08-18T21:54:10.874Z,19.63
2018-08-18T21:56:41.865Z,19.53
2018-08-18T21:59:13.603Z,19.38
2018-08-18T22:01:42.886Z,19.44
2018-08-18T22:04:12.180Z,19.50
2018-08-18T22:06:41.639Z,19.46
2018-08-18T22:09:20.665Z,19.61
2018-08-18T22:11:50.487Z,19.58
2018-08-18T22:14:20.243Z,19.38
2018-08-18T22:16:55.295Z,19.36
2018-08-18T22:19:25.286Z,19.28
2018-08-18T22:21:54.655Z,19.23
2018-08-18T22:24:24.216Z,19.19
2018-08-18T22:26:53.698Z,19.27
2018-08-18T22:29:25.083Z,19.22
2018-08-18T22:31:54.344Z,19.23
2018-08-18T22:34:23.872Z,19.14
2018-08-18T22:37:01.466Z,19.13
2018-08-18T22:39:31.118Z,19.11
2018-08-18T22:42:00.507Z,19.07
2018-08-18T22:44:29.847Z,19.01
2018-08-18T22:46:59.390Z,18.98
2018-08-18T22:49:28.638Z,18.95
2018-08-18T22:51:58.163Z,18.88
2018-08-18T22:54:27.345Z,19.08
2018-08-18T22:57:01.877Z,19.03
2018-08-18T22:59:32.040Z,19.16
2018-08-18T23:02:02.431Z,19.06
2018-08-18T23:04:33.466Z,19.01
2018-08-18T23:07:03.835Z,18.97
2018-08-18T23:09:33.613Z,18.88
2018-08-18T23:12:05.010Z,18.86
2018-08-18T23:14:36.844Z,18.83
2018-08-18T23:17:07.904Z,18.82
2018-08-18T23:19:37.424Z,18.74
2018-08-18T23:22:06.970Z,18.73
2018-08-18T23:24:38.135Z,18.81
2018-08-18T23:27:07.988Z,18.84
2018-08-18T23:29:38.112Z,18.81
2018-08-18T23:32:14.984Z,18.76
2018-08-18T23:34:44.726Z,18.78
2018-08-18T23:37:18.353Z,18.51
2018-08-18T23:39:50.543Z,18.67
2018-08-18T23:42:21.794Z,18.56
2018-08-18T23:44:51.302Z,18.57
2018-08-18T23:47:21.671Z,18.62
2018-08-18T23:49:51.821Z,18.51
2018-08-18T23:52:21.282Z,18.43
2018-08-18T23:54:50.768Z,18.32
2018-08-18T23:57:20.268Z,18.36
2018-08-18T23:59:50.402Z,18.33
